Time;durP1;ratioP1;P1;durP2;ratioP2;P2;SDS_P1;SDS_P2;PMS_P1;PMS_P2;Temp;Humidity;BMP_temperature;BMP_pressure;BME280_temperature;BME280_humidity;BME280_pressure;Samples;Min_cycle;Max_cycle;Signal;HPM_P1;HPM_P2
2022/05/28 00:01:56;;;;;;;2.75;0.88;;;21.20;48.30;;;;;;5053857;28;20474;-59
2022/05/28 00:04:22;;;;;;;3.35;1.45;;;21.20;48.30;;;;;;5054663;28;20082;-60
2022/05/28 00:06:48;;;;;;;2.45;1.00;;;21.20;48.30;;;;;;5053512;28;20072;-61
2022/05/28 00:09:13;;;;;;;3.13;0.90;;;21.20;48.30;;;;;;5054038;28;20029;-60
2022/05/28 00:11:41;;;;;;;3.70;1.30;;;21.20;48.30;;;;;;5052152;28;20044;-61
2022/05/28 00:14:08;;;;;;;4.38;1.00;;;21.20;48.30;;;;;;5034841;28;20099;-60
2022/05/28 00:16:36;;;;;;;4.28;1.20;;;21.20;48.40;;;;;;5055704;28;20048;-62
2022/05/28 00:19:02;;;;;;;3.22;0.88;;;21.20;48.30;;;;;;5052879;28;20039;-60
2022/05/28 00:21:28;;;;;;;2.65;1.02;;;21.20;48.40;;;;;;5053442;28;20068;-60
2022/05/28 00:23:53;;;;;;;3.33;1.00;;;21.20;48.30;;;;;;5052814;28;20072;-60
2022/05/28 00:26:19;;;;;;;4.93;1.30;;;21.20;48.40;;;;;;5051925;28;20045;-60
2022/05/28 00:28:46;;;;;;;3.53;1.17;;;21.20;48.40;;;;;;5052183;28;20033;-61
2022/05/28 00:31:12;;;;;;;2.58;0.93;;;21.20;48.40;;;;;;5053001;28;20090;-60
2022/05/28 00:33:38;;;;;;;3.25;1.13;;;21.10;48.40;;;;;;5051405;28;20051;-60
2022/05/28 00:36:06;;;;;;;5.65;1.65;;;21.10;48.30;;;;;;5053037;28;20672;-60
2022/05/28 00:38:32;;;;;;;2.60;1.10;;;21.20;48.40;;;;;;5056081;28;20032;-60
2022/05/28 00:40:59;;;;;;;3.70;1.00;;;21.20;48.40;;;;;;5059471;28;20875;-60
2022/05/28 00:43:25;;;;;;;1.98;1.00;;;21.10;48.30;;;;;;5053178;28;20370;-60
2022/05/28 00:45:57;;;;;;;2.08;0.73;;;21.20;48.40;;;;;;5056141;28;20036;-60
2022/05/28 00:48:26;;;;;;;3.90;0.90;;;21.10;48.30;;;;;;5058734;28;20051;-60
2022/05/28 00:50:52;;;;;;;2.00;1.20;;;21.10;48.40;;;;;;5054260;28;20045;-60
2022/05/28 00:53:19;;;;;;;2.97;0.98;;;21.10;48.40;;;;;;5056341;28;20040;-60
2022/05/28 00:55:45;;;;;;;2.50;1.10;;;21.20;48.50;;;;;;5057010;28;20037;-60
2022/05/28 00:58:11;;;;;;;2.83;0.90;;;21.10;48.50;;;;;;5056664;28;20090;-60
2022/05/28 01:00:39;;;;;;;3.47;1.00;;;21.10;48.50;;;;;;5058034;28;20045;-59
2022/05/28 01:03:45;;;;;;;3.60;1.08;;;21.10;48.60;;;;;;5056941;28;20058;-61
2022/05/28 01:06:24;;;;;;;4.10;1.00;;;21.10;48.70;;;;;;5025481;28;20045;-60
2022/05/28 01:08:58;;;;;;;2.70;1.05;;;21.10;48.80;;;;;;5055108;28;20033;-61
2022/05/28 01:11:47;;;;;;;2.20;0.73;;;21.10;48.80;;;;;;5057467;28;20918;-60
2022/05/28 01:14:21;;;;;;;2.15;0.95;;;21.10;48.80;;;;;;5049027;28;20041;-60
2022/05/28 01:16:51;;;;;;;1.70;0.60;;;21.10;48.90;;;;;;5050059;28;20044;-60
2022/05/28 01:19:40;;;;;;;2.40;0.82;;;21.10;48.90;;;;;;5056341;28;20109;-62
2022/05/28 01:22:24;;;;;;;2.47;0.70;;;21.10;48.90;;;;;;5057845;28;20094;-62
2022/05/28 01:25:07;;;;;;;1.77;0.90;;;21.10;49.00;;;;;;5055697;28;20131;-60
2022/05/28 01:27:41;;;;;;;1.52;0.77;;;21.10;48.90;;;;;;5056994;28;20052;-61
2022/05/28 01:30:10;;;;;;;1.92;0.80;;;21.10;49.00;;;;;;5055856;28;20134;-62
2022/05/28 01:32:37;;;;;;;2.75;0.80;;;21.10;49.00;;;;;;5054204;28;20119;-60
2022/05/28 01:35:08;;;;;;;2.03;0.80;;;21.10;49.00;;;;;;5054524;28;20381;-60
2022/05/28 01:37:35;;;;;;;2.35;0.82;;;21.10;49.00;;;;;;5054815;28;20170;-61
2022/05/28 01:40:04;;;;;;;2.17;0.80;;;21.10;48.90;;;;;;5053545;28;20099;-60
2022/05/28 01:42:31;;;;;;;2.40;0.70;;;21.10;49.00;;;;;;5053994;28;20032;-60
2022/05/28 01:44:58;;;;;;;2.55;0.93;;;21.10;48.90;;;;;;5055506;28;20157;-60
2022/05/28 01:47:25;;;;;;;1.60;0.70;;;21.10;49.00;;;;;;5055483;28;20806;-60
2022/05/28 01:49:51;;;;;;;1.98;0.60;;;21.00;48.90;;;;;;5054538;28;20409;-61
2022/05/28 01:52:20;;;;;;;2.20;0.80;;;21.00;49.00;;;;;;5056060;28;20044;-61
2022/05/28 01:54:48;;;;;;;2.05;0.77;;;21.10;49.00;;;;;;5055207;28;20102;-61
2022/05/28 01:57:14;;;;;;;1.08;0.70;;;21.00;48.90;;;;;;5055091;28;20135;-61
2022/05/28 01:59:41;;;;;;;1.98;0.90;;;21.00;48.90;;;;;;5055033;28;20048;-60
2022/05/28 02:02:09;;;;;;;2.67;0.85;;;21.00;49.00;;;;;;5050755;28;20079;-62
2022/05/28 02:04:37;;;;;;;1.92;0.80;;;21.00;49.00;;;;;;5048831;28;20045;-60
2022/05/28 02:07:04;;;;;;;2.17;0.80;;;21.00;49.00;;;;;;5052731;28;20084;-63
2022/05/28 02:09:42;;;;;;;1.88;0.80;;;21.00;49.00;;;;;;5052922;28;20694;-60
2022/05/28 02:12:18;;;;;;;2.05;1.08;;;21.00;49.00;;;;;;5053752;28;20067;-60
2022/05/28 02:15:02;;;;;;;2.53;0.75;;;21.00;49.00;;;;;;5043292;28;20397;-61
2022/05/28 02:17:46;;;;;;;3.08;0.88;;;21.00;49.00;;;;;;5056927;28;20103;-62
2022/05/28 02:20:31;;;;;;;3.65;0.90;;;21.00;49.00;;;;;;5051451;28;20052;-60
2022/05/28 02:23:11;;;;;;;1.35;0.70;;;21.00;49.00;;;;;;5053519;28;20041;-60
2022/05/28 02:26:01;;;;;;;1.95;0.60;;;21.00;49.00;;;;;;5057238;28;20119;-60
2022/05/28 02:28:29;;;;;;;2.30;0.68;;;21.00;49.00;;;;;;5053347;28;20056;-63
2022/05/28 02:31:02;;;;;;;2.38;0.70;;;21.00;49.00;;;;;;5055104;28;20088;-60
2022/05/28 02:33:30;;;;;;;1.33;0.70;;;21.00;49.00;;;;;;5053354;28;20101;-60
2022/05/28 02:35:55;;;;;;;3.10;0.85;;;21.00;49.00;;;;;;5052111;28;20124;-61
2022/05/28 02:38:21;;;;;;;2.03;0.70;;;21.00;48.90;;;;;;5054419;28;20112;-61
2022/05/28 02:40:47;;;;;;;2.08;0.70;;;21.00;48.90;;;;;;5053321;28;20032;-60
2022/05/28 02:43:12;;;;;;;1.52;0.60;;;21.00;49.00;;;;;;5054848;28;20037;-60
2022/05/28 02:45:39;;;;;;;2.08;0.77;;;21.00;49.00;;;;;;5056049;28;20400;-60
2022/05/28 02:48:05;;;;;;;2.78;0.63;;;21.00;48.90;;;;;;5054546;28;20097;-60
2022/05/28 02:50:31;;;;;;;1.67;0.90;;;21.00;48.90;;;;;;5055151;28;20067;-60
2022/05/28 02:52:57;;;;;;;1.98;0.85;;;21.00;48.90;;;;;;5055628;28;20037;-60
2022/05/28 02:55:23;;;;;;;1.83;0.60;;;21.00;48.90;;;;;;5055675;28;20044;-60
2022/05/28 02:57:49;;;;;;;2.35;0.65;;;20.90;48.90;;;;;;5055387;28;20036;-61
2022/05/28 03:00:16;;;;;;;1.63;0.63;;;20.90;48.90;;;;;;5033213;28;20091;-62
2022/05/28 03:02:42;;;;;;;3.60;1.00;;;21.00;48.90;;;;;;5054284;28;20040;-61
2022/05/28 03:05:10;;;;;;;2.55;0.80;;;20.90;48.80;;;;;;5055817;28;20040;-60
2022/05/28 03:07:35;;;;;;;2.03;0.50;;;20.90;48.80;;;;;;5054781;28;20055;-61
2022/05/28 03:10:01;;;;;;;1.70;0.60;;;20.90;48.70;;;;;;5056284;28;20722;-59
2022/05/28 03:12:26;;;;;;;1.92;0.50;;;20.90;48.80;;;;;;5054207;28;20078;-59
2022/05/28 03:14:52;;;;;;;2.65;0.77;;;20.90;48.70;;;;;;5051494;28;20036;-61
2022/05/28 03:17:17;;;;;;;2.97;0.57;;;20.90;48.70;;;;;;5052330;28;20040;-60
2022/05/28 03:19:43;;;;;;;2.47;0.70;;;20.90;48.70;;;;;;5056152;28;20044;-60
2022/05/28 03:22:08;;;;;;;3.03;0.80;;;20.90;48.60;;;;;;5055485;28;20036;-60
2022/05/28 03:24:34;;;;;;;4.15;0.82;;;20.90;48.60;;;;;;5054069;28;20033;-59
2022/05/28 03:26:59;;;;;;;6.07;0.90;;;20.90;48.50;;;;;;5056893;28;20040;-60
2022/05/28 03:29:25;;;;;;;4.30;1.08;;;20.90;48.50;;;;;;5054261;28;20036;-60
2022/05/28 03:31:51;;;;;;;3.60;0.65;;;20.90;48.50;;;;;;5054987;28;20102;-60
2022/05/28 03:34:17;;;;;;;2.90;0.80;;;20.90;48.40;;;;;;5052942;28;20484;-61
2022/05/28 03:36:43;;;;;;;2.47;0.93;;;20.90;48.40;;;;;;5054438;28;20037;-61
2022/05/28 03:39:09;;;;;;;3.17;0.85;;;20.90;48.40;;;;;;5055281;28;20657;-59
2022/05/28 03:41:35;;;;;;;2.55;0.70;;;20.90;48.40;;;;;;5054766;28;20673;-61
2022/05/28 03:44:00;;;;;;;3.63;0.70;;;20.80;48.30;;;;;;5054176;28;20123;-59
2022/05/28 03:46:35;;;;;;;3.13;1.02;;;20.80;48.30;;;;;;5053266;28;20047;-60
2022/05/28 03:49:21;;;;;;;2.50;0.85;;;20.80;48.20;;;;;;5037409;28;20556;-60
2022/05/28 03:51:46;;;;;;;3.50;1.00;;;20.80;48.90;;;;;;5054492;28;20044;-60
2022/05/28 03:54:12;;;;;;;2.72;0.77;;;20.80;48.20;;;;;;5053832;28;20043;-60
2022/05/28 03:56:41;;;;;;;3.60;0.70;;;20.80;48.10;;;;;;5054060;28;20052;-59
2022/05/28 03:59:07;;;;;;;3.10;0.90;;;20.80;48.10;;;;;;5035772;28;20080;-60
2022/05/28 04:01:34;;;;;;;4.22;0.93;;;20.80;48.00;;;;;;5053531;28;20028;-59
2022/05/28 04:03:59;;;;;;;1.63;0.80;;;20.80;48.00;;;;;;5048084;28;20040;-60
2022/05/28 04:06:25;;;;;;;3.63;0.85;;;20.80;48.00;;;;;;5051480;28;20033;-60
2022/05/28 04:08:51;;;;;;;5.07;1.23;;;20.80;48.00;;;;;;5052083;28;20047;-59
2022/05/28 04:11:17;;;;;;;2.10;0.70;;;20.80;47.90;;;;;;5052817;28;20037;-60
2022/05/28 04:13:43;;;;;;;3.85;1.17;;;20.80;47.90;;;;;;5053047;28;20039;-62
2022/05/28 04:16:09;;;;;;;1.90;0.80;;;20.80;47.90;;;;;;5058120;28;20078;-60
2022/05/28 04:18:35;;;;;;;3.80;0.93;;;20.80;47.90;;;;;;5057358;28;20032;-59
2022/05/28 04:21:00;;;;;;;3.60;0.90;;;20.80;47.90;;;;;;5056562;28;20054;-59
2022/05/28 04:23:26;;;;;;;1.50;0.47;;;20.80;47.90;;;;;;5057806;28;20043;-59
2022/05/28 04:25:52;;;;;;;2.17;0.80;;;20.80;47.90;;;;;;5059565;28;20044;-60
2022/05/28 04:28:18;;;;;;;2.92;0.90;;;20.80;47.90;;;;;;5056791;28;20710;-60
2022/05/28 04:30:44;;;;;;;1.95;0.80;;;20.80;47.80;;;;;;5057717;28;20246;-61
2022/05/28 04:33:09;;;;;;;3.60;1.00;;;20.80;47.80;;;;;;5057246;28;20123;-62
2022/05/28 04:35:35;;;;;;;4.57;0.75;;;20.80;47.80;;;;;;5049746;28;20045;-59
2022/05/28 04:38:01;;;;;;;5.22;1.10;;;20.80;47.80;;;;;;5057002;28;20041;-60
2022/05/28 04:40:27;;;;;;;2.97;0.90;;;20.70;48.50;;;;;;5058180;28;20481;-59
2022/05/28 04:42:53;;;;;;;2.72;0.70;;;20.80;47.80;;;;;;5057167;28;20040;-61
2022/05/28 04:45:19;;;;;;;2.95;1.00;;;20.70;47.70;;;;;;5056438;28;20048;-60
2022/05/28 04:47:44;;;;;;;3.00;1.10;;;20.80;47.80;;;;;;5057088;28;20054;-61
2022/05/28 04:50:11;;;;;;;4.40;0.82;;;20.70;47.80;;;;;;5049882;28;20403;-60
2022/05/28 04:52:38;;;;;;;3.22;0.95;;;20.70;47.80;;;;;;5059178;28;20048;-63
2022/05/28 04:55:05;;;;;;;2.05;0.98;;;20.70;47.80;;;;;;5057280;28;20033;-59
2022/05/28 04:57:31;;;;;;;2.63;0.95;;;20.70;47.70;;;;;;5048936;28;20047;-60
2022/05/28 04:59:56;;;;;;;2.88;1.00;;;20.70;47.80;;;;;;5058562;28;20497;-61
2022/05/28 05:02:22;;;;;;;3.35;1.08;;;20.70;47.70;;;;;;5057407;28;20955;-59
2022/05/28 05:04:47;;;;;;;3.55;1.20;;;20.70;47.80;;;;;;5057031;28;20099;-59
2022/05/28 05:07:13;;;;;;;2.40;1.02;;;20.70;47.70;;;;;;5058026;28;20043;-60
2022/05/28 05:09:38;;;;;;;2.75;0.60;;;20.70;47.70;;;;;;5055359;28;20052;-59
2022/05/28 05:12:04;;;;;;;3.85;1.20;;;20.70;47.70;;;;;;5050552;28;20051;-60
2022/05/28 05:14:30;;;;;;;3.55;1.23;;;20.70;47.70;;;;;;5055191;28;20690;-60
2022/05/28 05:16:55;;;;;;;3.70;0.95;;;20.70;47.70;;;;;;5058803;28;20139;-60
2022/05/28 05:19:21;;;;;;;3.90;1.00;;;20.70;47.70;;;;;;5055998;28;20071;-60
2022/05/28 05:21:46;;;;;;;5.00;0.90;;;20.70;47.70;;;;;;5048663;28;20048;-60
2022/05/28 05:24:12;;;;;;;3.25;1.35;;;20.70;47.70;;;;;;5054698;28;20036;-60
2022/05/28 05:26:37;;;;;;;2.53;1.00;;;20.70;47.70;;;;;;5056593;28;20539;-60
2022/05/28 05:29:03;;;;;;;3.80;0.90;;;20.70;47.70;;;;;;5057309;28;20045;-60
2022/05/28 05:31:29;;;;;;;3.20;0.90;;;20.70;47.70;;;;;;5057154;28;20084;-59
2022/05/28 05:33:54;;;;;;;2.95;1.00;;;20.70;47.70;;;;;;5057074;28;20152;-62
2022/05/28 05:36:20;;;;;;;3.97;1.02;;;20.70;47.70;;;;;;5057243;28;20076;-61
2022/05/28 05:38:45;;;;;;;3.95;1.00;;;20.70;47.80;;;;;;5057385;28;20029;-59
2022/05/28 05:41:11;;;;;;;3.25;1.05;;;20.60;47.70;;;;;;5038240;28;20399;-60
2022/05/28 05:43:37;;;;;;;2.53;1.00;;;20.60;47.60;;;;;;5057852;28;20028;-60
2022/05/28 05:46:02;;;;;;;3.03;0.90;;;20.60;47.60;;;;;;5038804;28;20085;-61
2022/05/28 05:48:29;;;;;;;5.13;1.20;;;20.60;47.60;;;;;;5038403;28;20093;-60
2022/05/28 05:50:55;;;;;;;2.60;1.00;;;20.60;47.60;;;;;;5029590;28;20037;-60
2022/05/28 05:53:20;;;;;;;3.42;1.00;;;20.60;47.50;;;;;;5054218;28;20106;-62
2022/05/28 05:55:47;;;;;;;2.92;0.98;;;20.60;47.60;;;;;;5056372;28;20048;-59
2022/05/28 05:58:13;;;;;;;3.92;1.23;;;20.60;47.50;;;;;;5054717;28;20044;-61
2022/05/28 06:00:39;;;;;;;5.07;1.52;;;20.60;47.50;;;;;;5054537;28;20040;-59
2022/05/28 06:03:06;;;;;;;2.83;1.08;;;20.60;47.50;;;;;;5055400;28;20128;-60
2022/05/28 06:05:32;;;;;;;4.32;1.27;;;20.60;47.50;;;;;;5056912;28;20054;-61
2022/05/28 06:07:57;;;;;;;5.13;1.17;;;20.60;47.40;;;;;;5058087;28;20504;-60
2022/05/28 06:10:23;;;;;;;3.42;1.17;;;20.60;47.40;;;;;;5056115;28;20047;-59
2022/05/28 06:12:49;;;;;;;3.90;1.33;;;20.60;47.30;;;;;;5055505;28;20045;-59
2022/05/28 06:15:14;;;;;;;3.13;1.30;;;20.60;47.30;;;;;;5055037;28;20044;-59
2022/05/28 06:17:40;;;;;;;3.13;0.93;;;20.60;47.30;;;;;;5055227;28;20100;-60
2022/05/28 06:20:10;;;;;;;3.80;1.20;;;20.60;47.30;;;;;;5055551;28;20090;-60
2022/05/28 06:22:36;;;;;;;3.95;1.50;;;20.60;47.30;;;;;;5055843;28;20040;-60
2022/05/28 06:25:03;;;;;;;5.00;1.40;;;20.50;47.20;;;;;;5055217;28;20044;-59
2022/05/28 06:27:28;;;;;;;4.35;1.05;;;20.60;47.30;;;;;;5053978;28;20110;-60
2022/05/28 06:29:54;;;;;;;3.40;1.23;;;20.50;47.10;;;;;;5055545;28;20045;-59
2022/05/28 06:32:19;;;;;;;2.60;1.00;;;20.50;47.30;;;;;;5053953;28;21008;-59
2022/05/28 06:34:45;;;;;;;4.95;1.33;;;20.60;47.50;;;;;;5035591;28;20148;-61
2022/05/28 06:37:12;;;;;;;4.75;1.42;;;20.60;47.80;;;;;;5054735;28;20067;-61
2022/05/28 06:39:38;;;;;;;3.30;1.08;;;20.60;47.80;;;;;;5054331;28;20045;-61
2022/05/28 06:42:04;;;;;;;6.10;1.30;;;20.60;47.70;;;;;;5057182;28;20417;-59
2022/05/28 06:44:30;;;;;;;4.78;1.25;;;20.60;47.70;;;;;;5055798;28;20459;-58
2022/05/28 06:46:55;;;;;;;4.20;1.48;;;20.60;47.60;;;;;;5056089;28;20036;-62
2022/05/28 06:49:21;;;;;;;9.35;1.75;;;20.60;47.20;;;;;;5044961;28;20392;-59
2022/05/28 06:51:48;;;;;;;5.68;1.55;;;20.60;47.20;;;;;;5056106;28;20568;-58
2022/05/28 06:54:13;;;;;;;5.13;1.35;;;20.60;47.60;;;;;;5054139;28;20446;-61
2022/05/28 06:56:39;;;;;;;7.00;1.88;;;20.60;47.70;;;;;;5055366;28;20040;-58
2022/05/28 06:59:05;;;;;;;9.15;1.80;;;20.60;47.90;;;;;;5055787;28;20118;-59
2022/05/28 07:01:30;;;;;;;4.38;1.27;;;20.60;48.00;;;;;;5035863;28;20052;-58
2022/05/28 07:03:56;;;;;;;6.95;1.60;;;20.60;48.10;;;;;;5053652;28;20048;-58
2022/05/28 07:06:22;;;;;;;6.05;1.45;;;20.60;48.20;;;;;;5051159;28;20143;-58
2022/05/28 07:08:48;;;;;;;6.75;1.60;;;20.60;48.50;;;;;;5055700;28;20063;-58
2022/05/28 07:11:14;;;;;;;3.50;1.38;;;20.60;48.70;;;;;;5053963;28;20512;-59
2022/05/28 07:13:40;;;;;;;2.88;1.33;;;20.70;48.90;;;;;;5045965;28;20122;-59
2022/05/28 07:16:07;;;;;;;5.93;1.40;;;20.70;49.00;;;;;;5050808;28;20579;-60
2022/05/28 07:18:37;;;;;;;4.88;1.35;;;20.70;49.10;;;;;;5055205;28;20037;-59
2022/05/28 07:21:03;;;;;;;4.25;1.17;;;20.70;49.20;;;;;;5056091;28;20411;-58
2022/05/28 07:23:30;;;;;;;11.73;1.73;;;20.70;49.30;;;;;;5054384;28;20028;-59
2022/05/28 07:26:08;;;;;;;4.72;1.50;;;20.70;49.40;;;;;;5050277;28;20037;-60
2022/05/28 07:28:36;;;;;;;5.60;1.58;;;20.70;49.40;;;;;;5055871;28;20149;-61
2022/05/28 07:31:28;;;;;;;5.07;1.52;;;20.70;49.40;;;;;;5050945;28;20098;-60
2022/05/28 07:33:54;;;;;;;5.65;1.67;;;20.70;49.40;;;;;;5046492;28;20108;-61
2022/05/28 07:36:22;;;;;;;6.03;1.65;;;20.70;49.40;;;;;;5052303;28;20052;-59
2022/05/28 07:38:48;;;;;;;8.50;2.10;;;20.70;49.20;;;;;;5054683;28;20094;-58
2022/05/28 07:41:19;;;;;;;4.10;1.35;;;20.70;49.20;;;;;;5052837;28;20120;-59
2022/05/28 07:43:45;;;;;;;6.47;1.30;;;20.70;49.20;;;;;;5052727;28;20054;-58
2022/05/28 07:46:26;;;;;;;6.35;1.58;;;20.70;49.20;;;;;;5052056;28;20052;-61
2022/05/28 07:48:54;;;;;;;3.55;1.10;;;20.70;50.00;;;;;;5053897;28;20083;-64
2022/05/28 07:51:20;;;;;;;4.47;1.30;;;20.70;49.30;;;;;;5052221;28;20040;-59
2022/05/28 07:53:46;;;;;;;3.95;1.42;;;20.70;49.30;;;;;;5055599;28;20049;-59
2022/05/28 07:56:12;;;;;;;4.93;1.90;;;20.70;49.20;;;;;;5053494;28;20485;-63
2022/05/28 07:58:38;;;;;;;6.25;1.60;;;20.70;49.10;;;;;;5052474;28;20029;-58
2022/05/28 08:01:06;;;;;;;3.90;1.60;;;20.70;49.10;;;;;;5054745;28;20041;-58
2022/05/28 08:03:32;;;;;;;5.43;1.80;;;20.80;49.00;;;;;;5052267;28;20040;-60
2022/05/28 08:05:58;;;;;;;6.28;1.80;;;20.70;48.90;;;;;;5054112;28;20033;-59
2022/05/28 08:08:26;;;;;;;8.05;2.17;;;20.70;48.80;;;;;;5054797;28;20485;-58
2022/05/28 08:10:52;;;;;;;6.28;1.88;;;20.70;48.80;;;;;;5053059;28;20037;-60
2022/05/28 08:13:21;;;;;;;5.63;1.65;;;20.70;49.60;;;;;;5051854;28;20045;-62
2022/05/28 08:15:49;;;;;;;4.85;1.98;;;20.70;48.90;;;;;;5053766;28;20047;-62
2022/05/28 08:18:16;;;;;;;8.57;1.80;;;20.70;48.90;;;;;;5052209;28;20041;-64
2022/05/28 08:23:27;;;;;;;5.32;1.52;;;20.70;48.80;;;;;;5051741;28;20047;-61
2022/05/28 08:25:52;;;;;;;7.53;1.80;;;20.70;49.00;;;;;;5053086;28;20040;-61
2022/05/28 08:28:20;;;;;;;4.22;1.63;;;20.70;49.50;;;;;;5053744;28;20397;-61
2022/05/28 08:30:46;;;;;;;5.18;1.52;;;20.70;49.70;;;;;;5053466;28;20051;-60
2022/05/28 08:33:14;;;;;;;4.95;1.92;;;20.80;49.80;;;;;;5053355;28;20117;-61
2022/05/28 08:35:40;;;;;;;3.42;1.42;;;20.80;50.00;;;;;;5051401;28;20477;-62
2022/05/28 08:38:11;;;;;;;6.05;1.83;;;20.70;49.90;;;;;;5054114;28;20031;-60
2022/05/28 08:41:03;;;;;;;3.55;1.45;;;20.80;50.00;;;;;;5054414;28;20136;-61
2022/05/28 08:43:32;;;;;;;4.25;1.50;;;20.80;50.00;;;;;;5051439;28;20033;-59
2022/05/28 08:45:58;;;;;;;5.78;2.08;;;20.80;49.90;;;;;;5056478;28;20516;-62
2022/05/28 08:48:34;;;;;;;3.28;1.50;;;20.80;50.00;;;;;;5054373;28;20041;-60
2022/05/28 08:51:05;;;;;;;7.47;2.00;;;20.80;50.10;;;;;;5053633;28;20045;-61
2022/05/28 08:53:37;;;;;;;4.47;1.40;;;20.80;50.20;;;;;;5051507;28;20041;-62
2022/05/28 08:56:04;;;;;;;5.90;1.63;;;20.80;50.10;;;;;;5051496;28;20048;-60
2022/05/28 08:58:32;;;;;;;6.20;1.67;;;20.80;50.80;;;;;;5053052;28;20036;-60
2022/05/28 09:01:14;;;;;;;6.65;2.00;;;20.80;49.80;;;;;;5055397;28;20130;-60
2022/05/28 09:03:54;;;;;;;3.75;1.90;;;20.80;49.70;;;;;;5058401;28;20056;-59
2022/05/28 09:06:35;;;;;;;5.57;1.50;;;20.80;49.80;;;;;;5056103;28;20130;-61
2022/05/28 09:09:00;;;;;;;5.57;1.60;;;20.80;49.80;;;;;;5057299;28;20041;-61
2022/05/28 09:11:37;;;;;;;5.30;1.80;;;20.80;49.80;;;;;;5057658;28;20049;-62
2022/05/28 09:14:25;;;;;;;4.13;1.55;;;20.80;49.90;;;;;;5057012;28;20045;-61
2022/05/28 09:16:58;;;;;;;4.97;1.63;;;20.80;49.80;;;;;;5054872;28;20461;-61
2022/05/28 09:19:32;;;;;;;3.88;1.80;;;20.80;49.60;;;;;;5054354;28;20136;-60
2022/05/28 09:21:57;;;;;;;4.65;1.90;;;20.80;49.60;;;;;;5056076;28;20127;-61
2022/05/28 09:24:26;;;;;;;6.57;2.33;;;20.80;49.60;;;;;;5056020;28;20481;-61
2022/05/28 09:27:05;;;;;;;6.07;1.65;;;20.80;49.50;;;;;;5055432;28;20032;-63
2022/05/28 09:29:55;;;;;;;7.43;1.80;;;20.80;49.60;;;;;;5056556;28;20036;-60
2022/05/28 09:32:32;;;;;;;4.65;1.58;;;20.80;49.60;;;;;;5054853;28;20052;-61
2022/05/28 09:35:15;;;;;;;5.80;2.47;;;20.80;49.50;;;;;;5055558;28;20048;-62
2022/05/28 09:37:59;;;;;;;3.90;1.50;;;20.80;49.50;;;;;;5054562;28;20082;-61
2022/05/28 09:40:38;;;;;;;4.80;2.08;;;20.80;49.50;;;;;;5057848;28;20089;-61
2022/05/28 09:43:19;;;;;;;5.15;1.60;;;20.80;49.40;;;;;;5053482;28;20040;-61
2022/05/28 09:46:02;;;;;;;4.65;1.58;;;20.80;49.30;;;;;;5056524;28;20397;-62
2022/05/28 09:48:28;;;;;;;4.10;1.88;;;20.80;49.00;;;;;;5057425;28;20037;-62
2022/05/28 09:50:55;;;;;;;5.05;1.60;;;20.80;48.90;;;;;;5053417;28;20141;-60
2022/05/28 09:56:36;;;;;;;5.88;1.83;;;20.80;48.80;;;;;;5037777;28;20101;-62
2022/05/28 09:59:25;;;;;;;5.57;1.88;;;20.80;48.90;;;;;;5059093;28;20045;-61
2022/05/28 10:02:07;;;;;;;4.47;1.40;;;20.80;48.80;;;;;;5025129;28;20152;-60
2022/05/28 10:05:03;;;;;;;4.65;1.63;;;20.80;48.80;;;;;;5057644;28;20045;-61
2022/05/28 10:07:38;;;;;;;4.38;1.48;;;20.80;48.60;;;;;;5054403;28;20053;-61
2022/05/28 10:10:29;;;;;;;7.72;1.92;;;20.80;48.60;;;;;;5056445;28;20181;-60
2022/05/28 10:13:18;;;;;;;5.88;1.88;;;20.80;48.50;;;;;;5052810;28;20052;-63
2022/05/28 10:15:56;;;;;;;3.47;1.30;;;20.80;48.60;;;;;;5057504;28;20102;-61
2022/05/28 10:18:28;;;;;;;4.07;1.38;;;20.70;48.70;;;;;;5054051;28;20041;-61
2022/05/28 10:21:02;;;;;;;3.53;1.83;;;20.80;48.80;;;;;;5056427;28;20045;-62
2022/05/28 10:23:28;;;;;;;4.10;1.50;;;20.80;48.80;;;;;;5054297;28;20040;-60
2022/05/28 10:25:53;;;;;;;4.60;1.58;;;20.80;48.80;;;;;;5053595;28;20094;-61
2022/05/28 10:28:46;;;;;;;3.97;1.80;;;20.80;48.80;;;;;;5055180;28;20119;-60
2022/05/28 10:31:34;;;;;;;3.13;1.70;;;20.80;48.90;;;;;;5042947;28;20469;-62
2022/05/28 10:34:00;;;;;;;3.33;1.55;;;20.80;48.90;;;;;;5027676;28;20041;-61
2022/05/28 10:36:29;;;;;;;9.38;2.00;;;20.80;48.80;;;;;;5032783;28;20090;-59
2022/05/28 10:39:24;;;;;;;4.25;1.50;;;20.80;48.80;;;;;;5036623;28;20063;-63
2022/05/28 10:41:52;;;;;;;4.10;1.67;;;20.80;48.80;;;;;;5015817;28;20053;-59
2022/05/28 10:44:19;;;;;;;7.30;1.85;;;20.80;48.90;;;;;;5033855;28;20037;-60
2022/05/28 10:47:21;;;;;;;6.72;1.63;;;20.80;48.90;;;;;;5033121;28;20033;-59
2022/05/28 10:50:09;;;;;;;4.70;2.10;;;20.80;48.80;;;;;;5035158;28;20159;-59
2022/05/28 10:52:54;;;;;;;4.43;1.55;;;20.80;48.90;;;;;;5032784;28;20029;-59
2022/05/28 10:55:58;;;;;;;4.88;1.88;;;20.80;48.90;;;;;;5035220;28;20104;-59
2022/05/28 10:58:43;;;;;;;4.88;1.77;;;20.80;48.70;;;;;;5033916;28;20275;-62
2022/05/28 11:01:51;;;;;;;5.63;1.75;;;20.80;48.60;;;;;;5033777;28;20127;-60
2022/05/28 11:04:23;;;;;;;4.93;1.70;;;20.80;48.40;;;;;;5034122;28;20104;-59
2022/05/28 11:07:01;;;;;;;4.53;1.85;;;20.80;48.50;;;;;;5035874;28;20065;-60
2022/05/28 11:10:05;;;;;;;6.90;1.73;;;20.70;48.30;;;;;;5035015;28;20037;-59
2022/05/28 11:12:55;;;;;;;4.88;1.48;;;20.80;48.20;;;;;;5034697;28;20077;-60
2022/05/28 11:15:28;;;;;;;3.53;1.65;;;20.70;48.10;;;;;;5024337;28;20522;-60
2022/05/28 11:17:53;;;;;;;4.07;1.50;;;20.70;48.20;;;;;;5033699;28;20120;-61
2022/05/28 11:20:58;;;;;;;3.75;1.55;;;20.70;48.20;;;;;;5016324;28;20132;-60
2022/05/28 11:23:30;;;;;;;5.65;1.80;;;20.80;48.20;;;;;;5014273;28;20051;-59
2022/05/28 11:26:05;;;;;;;5.25;1.73;;;20.70;48.10;;;;;;5034254;28;20041;-59
2022/05/28 11:29:05;;;;;;;3.70;1.63;;;20.70;48.00;;;;;;5033219;28;20087;-61
2022/05/28 11:31:41;;;;;;;5.13;1.70;;;20.70;47.90;;;;;;5044342;28;20600;-60
2022/05/28 11:34:23;;;;;;;4.05;1.50;;;20.70;47.90;;;;;;5036212;28;20126;-61
2022/05/28 11:36:58;;;;;;;3.13;1.60;;;20.70;47.80;;;;;;5052626;28;20045;-59
2022/05/28 11:39:35;;;;;;;5.00;1.67;;;20.70;47.90;;;;;;5053499;28;20051;-59
2022/05/28 11:42:11;;;;;;;3.58;1.60;;;20.70;47.70;;;;;;5054093;28;20583;-59
2022/05/28 11:44:44;;;;;;;3.75;1.58;;;20.70;47.80;;;;;;5052777;28;20044;-59
2022/05/28 11:47:30;;;;;;;3.72;1.55;;;20.70;47.80;;;;;;5053574;28;20041;-61
2022/05/28 11:52:57;;;;;;;5.20;1.98;;;20.70;47.70;;;;;;5052792;28;20075;-59
2022/05/28 11:55:30;;;;;;;3.35;1.40;;;20.70;47.70;;;;;;5051542;28;20074;-60
2022/05/28 11:58:16;;;;;;;3.63;1.50;;;20.70;47.80;;;;;;5054986;28;20136;-61
2022/05/28 12:00:48;;;;;;;3.97;1.67;;;20.70;47.80;;;;;;5053011;28;20051;-58
2022/05/28 12:03:21;;;;;;;4.68;1.55;;;20.70;47.80;;;;;;5052211;28;20037;-59
2022/05/28 12:05:51;;;;;;;3.30;1.30;;;20.70;47.70;;;;;;5052475;28;20088;-58
2022/05/28 12:08:39;;;;;;;5.10;1.50;;;20.70;47.70;;;;;;5050794;28;20086;-58
2022/05/28 12:11:09;;;;;;;4.40;1.40;;;20.70;47.60;;;;;;5052432;28;20043;-60
2022/05/28 12:13:41;;;;;;;3.27;1.20;;;20.70;48.40;;;;;;5053649;28;20064;-60
2022/05/28 12:16:21;;;;;;;7.60;1.80;;;20.70;47.60;;;;;;5052921;28;20843;-59
2022/05/28 12:18:59;;;;;;;4.05;1.45;;;20.70;47.60;;;;;;5055537;28;20033;-59
2022/05/28 12:21:36;;;;;;;5.35;1.58;;;20.70;47.40;;;;;;5054942;28;20075;-60
2022/05/28 12:24:19;;;;;;;4.25;1.67;;;20.70;47.40;;;;;;5054356;28;20037;-59
2022/05/28 12:29:48;;;;;;;4.82;1.70;;;20.70;47.20;;;;;;5054374;28;20135;-60
2022/05/28 12:32:17;;;;;;;4.82;1.90;;;20.70;47.40;;;;;;5019407;28;20061;-59
2022/05/28 12:35:22;;;;;;;5.97;1.90;;;20.70;47.20;;;;;;5050521;28;20048;-59
2022/05/28 12:37:58;;;;;;;6.15;1.70;;;20.70;46.70;;;;;;5058273;28;20040;-59
2022/05/28 12:40:48;;;;;;;6.53;1.40;;;20.70;46.70;;;;;;5058503;28;20119;-59
2022/05/28 12:43:30;;;;;;;4.90;1.80;;;20.70;46.40;;;;;;5055961;28;20071;-60
2022/05/28 12:45:58;;;;;;;5.55;1.80;;;20.70;46.50;;;;;;5056919;28;20044;-59
2022/05/28 12:48:30;;;;;;;5.55;1.90;;;20.70;46.30;;;;;;5057165;28;20045;-60
2022/05/28 12:51:05;;;;;;;5.00;1.50;;;20.70;46.20;;;;;;5047470;28;20048;-59
2022/05/28 12:53:58;;;;;;;4.53;1.63;;;20.70;46.20;;;;;;5054845;28;20067;-60
2022/05/28 12:56:44;;;;;;;5.15;2.20;;;20.70;45.90;;;;;;5049559;28;20141;-59
2022/05/28 12:59:25;;;;;;;5.57;1.77;;;20.70;45.90;;;;;;5058608;28;20890;-61
2022/05/28 13:02:05;;;;;;;6.57;1.77;;;20.70;45.80;;;;;;5056937;28;20059;-60
2022/05/28 13:04:42;;;;;;;6.22;1.75;;;20.70;45.90;;;;;;5058543;28;20431;-60
2022/05/28 13:07:27;;;;;;;6.25;1.83;;;20.70;45.90;;;;;;5057948;28;20032;-59
2022/05/28 13:10:23;;;;;;;5.10;1.75;;;20.70;45.60;;;;;;5056917;28;20064;-62
2022/05/28 13:13:22;;;;;;;5.13;1.70;;;20.70;45.80;;;;;;5044243;28;20895;-59
2022/05/28 13:16:15;;;;;;;7.47;2.25;;;20.70;45.60;;;;;;5049997;28;20057;-59
2022/05/28 13:18:53;;;;;;;5.22;2.10;;;20.70;45.60;;;;;;5058277;28;20140;-60
2022/05/28 13:21:54;;;;;;;5.75;2.10;;;20.70;45.70;;;;;;5056988;28;20040;-59
2022/05/28 13:24:44;;;;;;;5.70;1.80;;;20.70;45.50;;;;;;5053009;28;20028;-60